Biograd, Croatia
Current Conditions -  °F | °C
As of 10:00 AM on Thursday 25 Dec 2014 (Local Time) from LDZD Reporting Station
Broken Clouds Broken Clouds  
Wind Chill: 50°   Ceiling: 4500
Heat Index: 50°   Visibility: 6mi
Dew Point: 48°   Wind: 5mph
Humidity: 94%   Direction: 130°SE
Pressure: 30.21"   Gusts: NA
Location:  43.94°N, 15.45°E
Report Text: LDZD 250900Z 13004KT 9999 FEW030 BKN045 10/09 Q1023
Loading
Personal Weather Stations






























Interactive Weather Map New forecast layout! Learn more

10-Day Weather Forecast

Advertisements
Track Severe Weather on mobile